sensor_id;sensor_type;location;lat;lon;timestamp;P1;durP1;ratioP1;P2;durP2;ratioP2
9729;SDS011;4904;49.152;11.004;2022-08-16T00:00:21;4.22;;;3.83;;
9729;SDS011;4904;49.152;11.004;2022-08-16T00:02:49;4.43;;;3.80;;
9729;SDS011;4904;49.152;11.004;2022-08-16T00:05:17;4.70;;;3.85;;
9729;SDS011;4904;49.152;11.004;2022-08-16T00:07:47;4.63;;;4.18;;
9729;SDS011;4904;49.152;11.004;2022-08-16T00:10:14;5.03;;;4.60;;
9729;SDS011;4904;49.152;11.004;2022-08-16T00:12:42;5.10;;;4.60;;
9729;SDS011;4904;49.152;11.004;2022-08-16T00:15:12;5.43;;;4.88;;
9729;SDS011;4904;49.152;11.004;2022-08-16T00:17:40;4.57;;;4.18;;
9729;SDS011;4904;49.152;11.004;2022-08-16T00:20:08;6.80;;;5.43;;
9729;SDS011;4904;49.152;11.004;2022-08-16T00:22:36;7.03;;;5.07;;
9729;SDS011;4904;49.152;11.004;2022-08-16T00:25:07;5.85;;;4.88;;
9729;SDS011;4904;49.152;11.004;2022-08-16T00:27:36;5.72;;;5.20;;
9729;SDS011;4904;49.152;11.004;2022-08-16T00:30:04;6.00;;;5.50;;
9729;SDS011;4904;49.152;11.004;2022-08-16T00:32:32;7.00;;;5.30;;
9729;SDS011;4904;49.152;11.004;2022-08-16T00:35:00;7.25;;;5.20;;
9729;SDS011;4904;49.152;11.004;2022-08-16T00:37:27;4.85;;;4.45;;
9729;SDS011;4904;49.152;11.004;2022-08-16T00:39:54;6.55;;;5.10;;
9729;SDS011;4904;49.152;11.004;2022-08-16T00:42:22;5.68;;;4.70;;
9729;SDS011;4904;49.152;11.004;2022-08-16T00:44:50;5.82;;;5.32;;
9729;SDS011;4904;49.152;11.004;2022-08-16T00:47:20;5.13;;;4.72;;
9729;SDS011;4904;49.152;11.004;2022-08-16T00:49:50;5.85;;;5.00;;
9729;SDS011;4904;49.152;11.004;2022-08-16T00:52:18;5.63;;;5.13;;
9729;SDS011;4904;49.152;11.004;2022-08-16T00:54:45;6.20;;;5.60;;
9729;SDS011;4904;49.152;11.004;2022-08-16T00:57:12;6.00;;;5.50;;
9729;SDS011;4904;49.152;11.004;2022-08-16T00:59:40;6.97;;;5.90;;
9729;SDS011;4904;49.152;11.004;2022-08-16T01:02:08;6.20;;;5.45;;
9729;SDS011;4904;49.152;11.004;2022-08-16T01:04:36;7.65;;;5.82;;
9729;SDS011;4904;49.152;11.004;2022-08-16T01:07:04;6.50;;;5.90;;
9729;SDS011;4904;49.152;11.004;2022-08-16T01:09:34;6.80;;;6.05;;
9729;SDS011;4904;49.152;11.004;2022-08-16T01:12:04;6.55;;;5.95;;
9729;SDS011;4904;49.152;11.004;2022-08-16T01:14:34;6.72;;;6.13;;
9729;SDS011;4904;49.152;11.004;2022-08-16T01:17:05;6.72;;;6.13;;
9729;SDS011;4904;49.152;11.004;2022-08-16T01:19:33;7.32;;;6.10;;
9729;SDS011;4904;49.152;11.004;2022-08-16T01:22:05;8.50;;;6.50;;
9729;SDS011;4904;49.152;11.004;2022-08-16T01:24:39;6.40;;;5.80;;
9729;SDS011;4904;49.152;11.004;2022-08-16T01:27:11;7.50;;;6.82;;
9729;SDS011;4904;49.152;11.004;2022-08-16T01:29:50;8.10;;;6.40;;
9729;SDS011;4904;49.152;11.004;2022-08-16T01:32:21;9.65;;;6.30;;
9729;SDS011;4904;49.152;11.004;2022-08-16T01:34:49;7.30;;;6.60;;
9729;SDS011;4904;49.152;11.004;2022-08-16T01:37:16;8.07;;;6.95;;
9729;SDS011;4904;49.152;11.004;2022-08-16T01:39:44;8.75;;;6.95;;
9729;SDS011;4904;49.152;11.004;2022-08-16T01:42:11;6.63;;;6.00;;
9729;SDS011;4904;49.152;11.004;2022-08-16T01:44:38;8.40;;;6.30;;
9729;SDS011;4904;49.152;11.004;2022-08-16T01:47:06;7.40;;;6.70;;
9729;SDS011;4904;49.152;11.004;2022-08-16T01:49:36;7.45;;;6.70;;
9729;SDS011;4904;49.152;11.004;2022-08-16T01:52:07;7.78;;;6.95;;
9729;SDS011;4904;49.152;11.004;2022-08-16T01:54:37;7.10;;;6.35;;
9729;SDS011;4904;49.152;11.004;2022-08-16T01:57:06;7.25;;;6.60;;
9729;SDS011;4904;49.152;11.004;2022-08-16T01:59:33;7.47;;;6.82;;
9729;SDS011;4904;49.152;11.004;2022-08-16T02:02:02;7.18;;;6.50;;
9729;SDS011;4904;49.152;11.004;2022-08-16T02:04:30;7.20;;;6.50;;
9729;SDS011;4904;49.152;11.004;2022-08-16T02:06:58;7.18;;;6.57;;
9729;SDS011;4904;49.152;11.004;2022-08-16T02:09:28;6.82;;;6.13;;
9729;SDS011;4904;49.152;11.004;2022-08-16T02:11:56;6.97;;;6.18;;
9729;SDS011;4904;49.152;11.004;2022-08-16T02:14:26;8.52;;;7.20;;
9729;SDS011;4904;49.152;11.004;2022-08-16T02:16:55;6.93;;;6.38;;
9729;SDS011;4904;49.152;11.004;2022-08-16T02:19:27;7.38;;;6.43;;
9729;SDS011;4904;49.152;11.004;2022-08-16T02:21:57;6.55;;;5.95;;
9729;SDS011;4904;49.152;11.004;2022-08-16T02:24:25;6.75;;;6.07;;
9729;SDS011;4904;49.152;11.004;2022-08-16T02:26:52;6.88;;;6.25;;
9729;SDS011;4904;49.152;11.004;2022-08-16T02:29:20;6.20;;;5.50;;
9729;SDS011;4904;49.152;11.004;2022-08-16T02:31:49;7.97;;;5.93;;
9729;SDS011;4904;49.152;11.004;2022-08-16T02:34:17;6.05;;;5.55;;
9729;SDS011;4904;49.152;11.004;2022-08-16T02:36:45;6.18;;;5.57;;
9729;SDS011;4904;49.152;11.004;2022-08-16T02:39:13;6.15;;;5.55;;
9729;SDS011;4904;49.152;11.004;2022-08-16T02:41:41;6.05;;;5.45;;
9729;SDS011;4904;49.152;11.004;2022-08-16T02:44:10;5.90;;;5.40;;
9729;SDS011;4904;49.152;11.004;2022-08-16T02:46:39;5.65;;;5.15;;
9729;SDS011;4904;49.152;11.004;2022-08-16T02:49:07;6.43;;;5.65;;
9729;SDS011;4904;49.152;11.004;2022-08-16T02:51:35;6.05;;;5.45;;
9729;SDS011;4904;49.152;11.004;2022-08-16T02:54:04;5.72;;;5.22;;
9729;SDS011;4904;49.152;11.004;2022-08-16T02:56:33;7.07;;;5.22;;
9729;SDS011;4904;49.152;11.004;2022-08-16T02:59:00;6.70;;;6.03;;
9729;SDS011;4904;49.152;11.004;2022-08-16T03:01:28;8.00;;;5.90;;
9729;SDS011;4904;49.152;11.004;2022-08-16T03:03:56;6.20;;;5.70;;
9729;SDS011;4904;49.152;11.004;2022-08-16T03:06:26;6.30;;;5.80;;
9729;SDS011;4904;49.152;11.004;2022-08-16T03:09:06;6.40;;;5.80;;
9729;SDS011;4904;49.152;11.004;2022-08-16T03:11:33;5.78;;;5.30;;
9729;SDS011;4904;49.152;11.004;2022-08-16T03:14:00;6.18;;;5.55;;
9729;SDS011;4904;49.152;11.004;2022-08-16T03:16:27;5.90;;;5.38;;
9729;SDS011;4904;49.152;11.004;2022-08-16T03:18:55;5.72;;;5.22;;
9729;SDS011;4904;49.152;11.004;2022-08-16T03:21:22;6.25;;;5.68;;
9729;SDS011;4904;49.152;11.004;2022-08-16T03:23:50;7.15;;;5.65;;
9729;SDS011;4904;49.152;11.004;2022-08-16T03:26:17;7.50;;;5.72;;
9729;SDS011;4904;49.152;11.004;2022-08-16T03:28:44;6.43;;;5.82;;
9729;SDS011;4904;49.152;11.004;2022-08-16T03:31:11;5.97;;;5.43;;
9729;SDS011;4904;49.152;11.004;2022-08-16T03:33:38;6.68;;;5.30;;
9729;SDS011;4904;49.152;11.004;2022-08-16T03:36:05;6.30;;;5.70;;
9729;SDS011;4904;49.152;11.004;2022-08-16T03:38:33;5.97;;;5.45;;
9729;SDS011;4904;49.152;11.004;2022-08-16T03:41:02;9.18;;;6.20;;
9729;SDS011;4904;49.152;11.004;2022-08-16T03:43:31;6.47;;;5.88;;
9729;SDS011;4904;49.152;11.004;2022-08-16T03:45:59;6.45;;;5.85;;
9729;SDS011;4904;49.152;11.004;2022-08-16T03:48:28;6.82;;;6.22;;
9729;SDS011;4904;49.152;11.004;2022-08-16T03:50:58;7.05;;;6.28;;
9729;SDS011;4904;49.152;11.004;2022-08-16T03:53:25;7.63;;;6.47;;
9729;SDS011;4904;49.152;11.004;2022-08-16T03:55:52;7.30;;;6.60;;
9729;SDS011;4904;49.152;11.004;2022-08-16T03:58:21;7.47;;;6.78;;
9729;SDS011;4904;49.152;11.004;2022-08-16T04:00:48;6.90;;;6.15;;
9729;SDS011;4904;49.152;11.004;2022-08-16T04:03:15;6.53;;;5.93;;
9729;SDS011;4904;49.152;11.004;2022-08-16T04:05:43;7.68;;;6.60;;
9729;SDS011;4904;49.152;11.004;2022-08-16T04:08:12;6.80;;;6.10;;
9729;SDS011;4904;49.152;11.004;2022-08-16T04:10:40;7.00;;;6.35;;
9729;SDS011;4904;49.152;11.004;2022-08-16T04:13:06;8.07;;;6.80;;
9729;SDS011;4904;49.152;11.004;2022-08-16T04:15:35;7.40;;;6.68;;
9729;SDS011;4904;49.152;11.004;2022-08-16T04:18:02;7.40;;;6.70;;
9729;SDS011;4904;49.152;11.004;2022-08-16T04:20:30;8.20;;;6.13;;
9729;SDS011;4904;49.152;11.004;2022-08-16T04:22:57;7.20;;;6.53;;
9729;SDS011;4904;49.152;11.004;2022-08-16T04:25:24;7.55;;;6.82;;
9729;SDS011;4904;49.152;11.004;2022-08-16T04:27:52;6.88;;;6.28;;
9729;SDS011;4904;49.152;11.004;2022-08-16T04:30:19;7.05;;;6.45;;
9729;SDS011;4904;49.152;11.004;2022-08-16T04:32:49;7.55;;;6.85;;
9729;SDS011;4904;49.152;11.004;2022-08-16T04:35:17;7.22;;;6.38;;
9729;SDS011;4904;49.152;11.004;2022-08-16T04:37:46;10.75;;;6.68;;
9729;SDS011;4904;49.152;11.004;2022-08-16T04:40:13;6.85;;;6.20;;
9729;SDS011;4904;49.152;11.004;2022-08-16T04:42:41;6.72;;;6.13;;
9729;SDS011;4904;49.152;11.004;2022-08-16T04:45:10;10.00;;;6.55;;
9729;SDS011;4904;49.152;11.004;2022-08-16T04:47:38;7.90;;;6.15;;
9729;SDS011;4904;49.152;11.004;2022-08-16T04:50:08;6.78;;;6.18;;
9729;SDS011;4904;49.152;11.004;2022-08-16T04:52:38;7.47;;;6.25;;
9729;SDS011;4904;49.152;11.004;2022-08-16T04:55:07;10.40;;;6.15;;
9729;SDS011;4904;49.152;11.004;2022-08-16T04:57:35;7.10;;;5.90;;
9729;SDS011;4904;49.152;11.004;2022-08-16T05:00:07;7.00;;;6.40;;
9729;SDS011;4904;49.152;11.004;2022-08-16T05:02:37;6.65;;;5.85;;
9729;SDS011;4904;49.152;11.004;2022-08-16T05:05:05;8.77;;;6.68;;
9729;SDS011;4904;49.152;11.004;2022-08-16T05:07:34;8.45;;;6.45;;
9729;SDS011;4904;49.152;11.004;2022-08-16T05:10:02;7.22;;;6.53;;
9729;SDS011;4904;49.152;11.004;2022-08-16T05:12:29;7.13;;;6.28;;
9729;SDS011;4904;49.152;11.004;2022-08-16T05:14:56;6.10;;;5.60;;
9729;SDS011;4904;49.152;11.004;2022-08-16T05:17:23;7.07;;;6.43;;
9729;SDS011;4904;49.152;11.004;2022-08-16T05:19:51;7.25;;;6.25;;
9729;SDS011;4904;49.152;11.004;2022-08-16T05:22:19;7.53;;;6.32;;
9729;SDS011;4904;49.152;11.004;2022-08-16T05:24:46;7.10;;;6.40;;
9729;SDS011;4904;49.152;11.004;2022-08-16T05:27:14;6.68;;;6.18;;
9729;SDS011;4904;49.152;11.004;2022-08-16T05:29:41;6.93;;;6.18;;
9729;SDS011;4904;49.152;11.004;2022-08-16T05:32:08;6.70;;;6.00;;
9729;SDS011;4904;49.152;11.004;2022-08-16T05:34:35;6.78;;;6.00;;
9729;SDS011;4904;49.152;11.004;2022-08-16T05:37:02;7.30;;;6.70;;
9729;SDS011;4904;49.152;11.004;2022-08-16T05:39:30;7.57;;;6.97;;
9729;SDS011;4904;49.152;11.004;2022-08-16T05:41:57;7.97;;;6.53;;
9729;SDS011;4904;49.152;11.004;2022-08-16T05:44:24;7.75;;;6.97;;
9729;SDS011;4904;49.152;11.004;2022-08-16T05:46:52;7.25;;;6.55;;
9729;SDS011;4904;49.152;11.004;2022-08-16T05:49:20;6.75;;;6.03;;
9729;SDS011;4904;49.152;11.004;2022-08-16T05:51:47;7.35;;;6.65;;
9729;SDS011;4904;49.152;11.004;2022-08-16T05:54:14;7.35;;;6.75;;
9729;SDS011;4904;49.152;11.004;2022-08-16T05:56:43;9.00;;;7.65;;
9729;SDS011;4904;49.152;11.004;2022-08-16T05:59:11;9.13;;;7.55;;
9729;SDS011;4904;49.152;11.004;2022-08-16T06:01:42;9.18;;;8.10;;
9729;SDS011;4904;49.152;11.004;2022-08-16T06:04:11;9.18;;;7.82;;
9729;SDS011;4904;49.152;11.004;2022-08-16T06:06:39;7.55;;;6.85;;
9729;SDS011;4904;49.152;11.004;2022-08-16T06:09:07;7.53;;;6.78;;
9729;SDS011;4904;49.152;11.004;2022-08-16T06:11:34;8.18;;;6.57;;
9729;SDS011;4904;49.152;11.004;2022-08-16T06:14:02;7.53;;;6.82;;
9729;SDS011;4904;49.152;11.004;2022-08-16T06:16:30;7.55;;;6.57;;
9729;SDS011;4904;49.152;11.004;2022-08-16T06:18:57;6.43;;;5.80;;
9729;SDS011;4904;49.152;11.004;2022-08-16T06:21:24;7.28;;;6.15;;
9729;SDS011;4904;49.152;11.004;2022-08-16T06:23:51;7.25;;;5.85;;
9729;SDS011;4904;49.152;11.004;2022-08-16T06:26:21;6.07;;;5.47;;
9729;SDS011;4904;49.152;11.004;2022-08-16T06:28:48;6.63;;;6.03;;
9729;SDS011;4904;49.152;11.004;2022-08-16T06:31:16;6.40;;;5.85;;
9729;SDS011;4904;49.152;11.004;2022-08-16T06:33:43;6.63;;;6.03;;
9729;SDS011;4904;49.152;11.004;2022-08-16T06:36:10;6.45;;;5.38;;
9729;SDS011;4904;49.152;11.004;2022-08-16T06:38:38;6.57;;;5.95;;
9729;SDS011;4904;49.152;11.004;2022-08-16T06:41:05;7.63;;;5.43;;
9729;SDS011;4904;49.152;11.004;2022-08-16T06:43:33;5.32;;;4.72;;
9729;SDS011;4904;49.152;11.004;2022-08-16T06:46:04;6.43;;;5.47;;
9729;SDS011;4904;49.152;11.004;2022-08-16T06:48:36;8.02;;;5.80;;
9729;SDS011;4904;49.152;11.004;2022-08-16T06:51:05;6.80;;;5.90;;
9729;SDS011;4904;49.152;11.004;2022-08-16T06:53:32;7.88;;;5.20;;
9729;SDS011;4904;49.152;11.004;2022-08-16T06:56:00;5.78;;;5.28;;
9729;SDS011;4904;49.152;11.004;2022-08-16T06:58:30;5.38;;;4.88;;
9729;SDS011;4904;49.152;11.004;2022-08-16T07:00:56;5.00;;;4.53;;
9729;SDS011;4904;49.152;11.004;2022-08-16T07:03:24;12.25;;;5.60;;
9729;SDS011;4904;49.152;11.004;2022-08-16T07:05:52;5.82;;;4.75;;
9729;SDS011;4904;49.152;11.004;2022-08-16T07:08:21;5.28;;;4.22;;
9729;SDS011;4904;49.152;11.004;2022-08-16T07:10:48;6.25;;;4.97;;
9729;SDS011;4904;49.152;11.004;2022-08-16T07:13:15;5.50;;;4.90;;
9729;SDS011;4904;49.152;11.004;2022-08-16T07:15:42;5.38;;;4.93;;
9729;SDS011;4904;49.152;11.004;2022-08-16T07:18:09;4.80;;;4.40;;
9729;SDS011;4904;49.152;11.004;2022-08-16T07:20:36;6.75;;;4.78;;
9729;SDS011;4904;49.152;11.004;2022-08-16T07:23:05;5.13;;;4.72;;
9729;SDS011;4904;49.152;11.004;2022-08-16T07:25:33;5.38;;;4.90;;
9729;SDS011;4904;49.152;11.004;2022-08-16T07:28:00;5.53;;;5.03;;
9729;SDS011;4904;49.152;11.004;2022-08-16T07:30:28;5.43;;;4.90;;
9729;SDS011;4904;49.152;11.004;2022-08-16T07:32:58;5.60;;;5.10;;
9729;SDS011;4904;49.152;11.004;2022-08-16T07:35:26;5.10;;;4.53;;
9729;SDS011;4904;49.152;11.004;2022-08-16T07:37:53;5.43;;;4.95;;
9729;SDS011;4904;49.152;11.004;2022-08-16T07:40:22;4.97;;;4.57;;
9729;SDS011;4904;49.152;11.004;2022-08-16T07:42:49;5.13;;;4.72;;
9729;SDS011;4904;49.152;11.004;2022-08-16T07:45:16;5.88;;;5.18;;
9729;SDS011;4904;49.152;11.004;2022-08-16T07:47:44;5.03;;;4.53;;
9729;SDS011;4904;49.152;11.004;2022-08-16T07:50:11;5.15;;;4.55;;
9729;SDS011;4904;49.152;11.004;2022-08-16T07:52:40;5.05;;;4.50;;
9729;SDS011;4904;49.152;11.004;2022-08-16T07:55:08;5.13;;;4.63;;
9729;SDS011;4904;49.152;11.004;2022-08-16T07:57:39;4.93;;;4.50;;
9729;SDS011;4904;49.152;11.004;2022-08-16T08:00:07;4.47;;;3.90;;
9729;SDS011;4904;49.152;11.004;2022-08-16T08:02:35;5.68;;;4.53;;
9729;SDS011;4904;49.152;11.004;2022-08-16T08:05:03;4.95;;;4.45;;
9729;SDS011;4904;49.152;11.004;2022-08-16T08:07:31;4.90;;;4.35;;
9729;SDS011;4904;49.152;11.004;2022-08-16T08:09:58;5.75;;;4.03;;
9729;SDS011;4904;49.152;11.004;2022-08-16T08:12:25;6.55;;;4.93;;
9729;SDS011;4904;49.152;11.004;2022-08-16T08:14:53;6.13;;;4.95;;
9729;SDS011;4904;49.152;11.004;2022-08-16T08:17:20;5.25;;;4.38;;
9729;SDS011;4904;49.152;11.004;2022-08-16T08:19:47;4.82;;;3.88;;
9729;SDS011;4904;49.152;11.004;2022-08-16T08:22:14;4.45;;;4.05;;
9729;SDS011;4904;49.152;11.004;2022-08-16T08:24:41;4.43;;;4.03;;
9729;SDS011;4904;49.152;11.004;2022-08-16T08:27:09;4.15;;;3.75;;
9729;SDS011;4904;49.152;11.004;2022-08-16T08:29:36;6.07;;;3.78;;
9729;SDS011;4904;49.152;11.004;2022-08-16T08:32:07;5.05;;;3.90;;
9729;SDS011;4904;49.152;11.004;2022-08-16T08:34:34;4.43;;;4.03;;
9729;SDS011;4904;49.152;11.004;2022-08-16T08:37:01;4.50;;;4.10;;
9729;SDS011;4904;49.152;11.004;2022-08-16T08:39:29;4.30;;;3.80;;
9729;SDS011;4904;49.152;11.004;2022-08-16T08:41:56;5.85;;;4.03;;
9729;SDS011;4904;49.152;11.004;2022-08-16T08:44:23;4.38;;;3.97;;
9729;SDS011;4904;49.152;11.004;2022-08-16T08:46:50;4.95;;;4.55;;
9729;SDS011;4904;49.152;11.004;2022-08-16T08:49:22;4.95;;;4.32;;
9729;SDS011;4904;49.152;11.004;2022-08-16T08:51:49;5.18;;;3.95;;
9729;SDS011;4904;49.152;11.004;2022-08-16T08:54:17;11.75;;;4.93;;
9729;SDS011;4904;49.152;11.004;2022-08-16T08:56:44;5.43;;;4.82;;
9729;SDS011;4904;49.152;11.004;2022-08-16T08:59:11;5.07;;;4.38;;
9729;SDS011;4904;49.152;11.004;2022-08-16T09:01:38;4.82;;;4.10;;
9729;SDS011;4904;49.152;11.004;2022-08-16T09:04:07;4.32;;;3.92;;
9729;SDS011;4904;49.152;11.004;2022-08-16T09:06:36;4.57;;;4.18;;
9729;SDS011;4904;49.152;11.004;2022-08-16T09:09:03;6.68;;;4.18;;
9729;SDS011;4904;49.152;11.004;2022-08-16T09:11:31;4.97;;;4.00;;
9729;SDS011;4904;49.152;11.004;2022-08-16T09:14:00;5.57;;;4.32;;
9729;SDS011;4904;49.152;11.004;2022-08-16T09:16:27;4.82;;;4.35;;
9729;SDS011;4904;49.152;11.004;2022-08-16T09:18:57;4.20;;;3.63;;
9729;SDS011;4904;49.152;11.004;2022-08-16T09:21:24;5.88;;;3.72;;
9729;SDS011;4904;49.152;11.004;2022-08-16T09:23:53;4.40;;;4.00;;
9729;SDS011;4904;49.152;11.004;2022-08-16T09:26:20;4.50;;;4.10;;
9729;SDS011;4904;49.152;11.004;2022-08-16T09:28:48;8.45;;;3.92;;
9729;SDS011;4904;49.152;11.004;2022-08-16T09:31:15;5.05;;;4.25;;
9729;SDS011;4904;49.152;11.004;2022-08-16T09:33:43;4.10;;;3.45;;
9729;SDS011;4904;49.152;11.004;2022-08-16T09:36:11;4.00;;;3.55;;
9729;SDS011;4904;49.152;11.004;2022-08-16T09:38:38;5.07;;;4.03;;
9729;SDS011;4904;49.152;11.004;2022-08-16T09:41:07;8.23;;;3.88;;
9729;SDS011;4904;49.152;11.004;2022-08-16T09:43:35;6.40;;;3.80;;
9729;SDS011;4904;49.152;11.004;2022-08-16T09:46:04;4.20;;;3.75;;
9729;SDS011;4904;49.152;11.004;2022-08-16T09:48:34;7.53;;;3.65;;
9729;SDS011;4904;49.152;11.004;2022-08-16T09:51:06;4.63;;;3.80;;
9729;SDS011;4904;49.152;11.004;2022-08-16T09:53:34;4.35;;;3.63;;
9729;SDS011;4904;49.152;11.004;2022-08-16T09:56:03;4.05;;;3.60;;
9729;SDS011;4904;49.152;11.004;2022-08-16T09:58:37;3.78;;;3.45;;
9729;SDS011;4904;49.152;11.004;2022-08-16T10:01:05;6.03;;;3.55;;
9729;SDS011;4904;49.152;11.004;2022-08-16T10:03:32;4.05;;;3.72;;
9729;SDS011;4904;49.152;11.004;2022-08-16T10:05:59;4.10;;;3.63;;
9729;SDS011;4904;49.152;11.004;2022-08-16T10:08:26;4.47;;;3.72;;
9729;SDS011;4904;49.152;11.004;2022-08-16T10:10:53;6.00;;;3.72;;
9729;SDS011;4904;49.152;11.004;2022-08-16T10:13:38;4.35;;;3.95;;
9729;SDS011;4904;49.152;11.004;2022-08-16T10:16:08;4.53;;;3.40;;
9729;SDS011;4904;49.152;11.004;2022-08-16T10:18:39;4.82;;;3.80;;
9729;SDS011;4904;49.152;11.004;2022-08-16T10:21:08;3.80;;;3.50;;
9729;SDS011;4904;49.152;11.004;2022-08-16T10:23:36;4.18;;;3.78;;
9729;SDS011;4904;49.152;11.004;2022-08-16T10:26:03;5.15;;;3.75;;
9729;SDS011;4904;49.152;11.004;2022-08-16T10:28:30;6.75;;;3.75;;
9729;SDS011;4904;49.152;11.004;2022-08-16T10:30:59;4.07;;;3.47;;
9729;SDS011;4904;49.152;11.004;2022-08-16T10:33:26;5.40;;;3.47;;
9729;SDS011;4904;49.152;11.004;2022-08-16T10:35:54;4.47;;;3.70;;
9729;SDS011;4904;49.152;11.004;2022-08-16T10:38:21;52.03;;;9.02;;
9729;SDS011;4904;49.152;11.004;2022-08-16T10:40:48;4.28;;;3.60;;
9729;SDS011;4904;49.152;11.004;2022-08-16T10:43:15;3.63;;;3.30;;
9729;SDS011;4904;49.152;11.004;2022-08-16T10:45:42;16.67;;;5.78;;
9729;SDS011;4904;49.152;11.004;2022-08-16T10:48:10;3.78;;;3.40;;
9729;SDS011;4904;49.152;11.004;2022-08-16T10:50:38;5.47;;;3.70;;
9729;SDS011;4904;49.152;11.004;2022-08-16T10:53:06;5.22;;;3.70;;
9729;SDS011;4904;49.152;11.004;2022-08-16T10:55:33;4.28;;;3.25;;
9729;SDS011;4904;49.152;11.004;2022-08-16T10:58:02;3.53;;;3.22;;
9729;SDS011;4904;49.152;11.004;2022-08-16T11:00:29;4.05;;;3.58;;
9729;SDS011;4904;49.152;11.004;2022-08-16T11:02:59;3.72;;;3.30;;
9729;SDS011;4904;49.152;11.004;2022-08-16T11:05:29;3.70;;;3.10;;
9729;SDS011;4904;49.152;11.004;2022-08-16T11:07:58;4.13;;;3.28;;
9729;SDS011;4904;49.152;11.004;2022-08-16T11:10:26;3.65;;;3.35;;
9729;SDS011;4904;49.152;11.004;2022-08-16T11:12:55;3.42;;;3.13;;
9729;SDS011;4904;49.152;11.004;2022-08-16T11:15:22;4.90;;;3.33;;
9729;SDS011;4904;49.152;11.004;2022-08-16T11:17:50;3.60;;;3.30;;
9729;SDS011;4904;49.152;11.004;2022-08-16T11:20:19;4.18;;;3.55;;
9729;SDS011;4904;49.152;11.004;2022-08-16T11:22:48;3.70;;;3.28;;
9729;SDS011;4904;49.152;11.004;2022-08-16T11:25:18;3.85;;;3.50;;
9729;SDS011;4904;49.152;11.004;2022-08-16T11:27:46;4.00;;;3.70;;
9729;SDS011;4904;49.152;11.004;2022-08-16T11:30:14;6.85;;;4.13;;
9729;SDS011;4904;49.152;11.004;2022-08-16T11:32:42;3.50;;;3.10;;
9729;SDS011;4904;49.152;11.004;2022-08-16T11:35:10;4.57;;;3.70;;
9729;SDS011;4904;49.152;11.004;2022-08-16T11:37:42;3.38;;;3.08;;
9729;SDS011;4904;49.152;11.004;2022-08-16T11:40:14;4.13;;;3.40;;
9729;SDS011;4904;49.152;11.004;2022-08-16T11:42:41;5.60;;;3.67;;
9729;SDS011;4904;49.152;11.004;2022-08-16T11:45:08;3.60;;;3.30;;
9729;SDS011;4904;49.152;11.004;2022-08-16T11:47:36;4.90;;;3.65;;
9729;SDS011;4904;49.152;11.004;2022-08-16T11:50:03;4.25;;;3.28;;
9729;SDS011;4904;49.152;11.004;2022-08-16T11:52:33;4.20;;;3.40;;
9729;SDS011;4904;49.152;11.004;2022-08-16T11:55:00;3.42;;;3.10;;
9729;SDS011;4904;49.152;11.004;2022-08-16T11:57:29;3.75;;;2.90;;
9729;SDS011;4904;49.152;11.004;2022-08-16T11:59:56;3.92;;;3.10;;
9729;SDS011;4904;49.152;11.004;2022-08-16T12:02:23;3.40;;;3.10;;
9729;SDS011;4904;49.152;11.004;2022-08-16T12:04:50;3.83;;;3.40;;
9729;SDS011;4904;49.152;11.004;2022-08-16T12:07:17;5.82;;;3.47;;
9729;SDS011;4904;49.152;11.004;2022-08-16T12:09:45;3.40;;;3.03;;
9729;SDS011;4904;49.152;11.004;2022-08-16T12:12:12;4.05;;;3.35;;
9729;SDS011;4904;49.152;11.004;2022-08-16T12:14:45;3.15;;;2.95;;
9729;SDS011;4904;49.152;11.004;2022-08-16T12:17:12;5.57;;;3.30;;
9729;SDS011;4904;49.152;11.004;2022-08-16T12:19:39;3.20;;;2.97;;
9729;SDS011;4904;49.152;11.004;2022-08-16T12:22:06;3.30;;;2.80;;
9729;SDS011;4904;49.152;11.004;2022-08-16T12:24:33;3.55;;;3.25;;
9729;SDS011;4904;49.152;11.004;2022-08-16T12:27:00;5.30;;;3.22;;
9729;SDS011;4904;49.152;11.004;2022-08-16T12:29:28;6.43;;;3.10;;
9729;SDS011;4904;49.152;11.004;2022-08-16T12:31:56;3.67;;;3.40;;
9729;SDS011;4904;49.152;11.004;2022-08-16T12:34:23;4.53;;;3.25;;
9729;SDS011;4904;49.152;11.004;2022-08-16T12:36:51;3.30;;;3.00;;
9729;SDS011;4904;49.152;11.004;2022-08-16T12:39:17;3.38;;;3.08;;
9729;SDS011;4904;49.152;11.004;2022-08-16T12:41:45;3.35;;;3.05;;
9729;SDS011;4904;49.152;11.004;2022-08-16T12:44:12;3.70;;;3.40;;
9729;SDS011;4904;49.152;11.004;2022-08-16T12:46:40;5.05;;;3.38;;
9729;SDS011;4904;49.152;11.004;2022-08-16T12:49:28;5.82;;;3.25;;
9729;SDS011;4904;49.152;11.004;2022-08-16T12:51:54;3.10;;;2.80;;
9729;SDS011;4904;49.152;11.004;2022-08-16T12:54:21;3.83;;;3.00;;
9729;SDS011;4904;49.152;11.004;2022-08-16T12:56:49;4.55;;;3.17;;
9729;SDS011;4904;49.152;11.004;2022-08-16T12:59:16;3.40;;;2.72;;
9729;SDS011;4904;49.152;11.004;2022-08-16T13:01:44;5.07;;;3.05;;
9729;SDS011;4904;49.152;11.004;2022-08-16T13:04:11;4.50;;;3.00;;
9729;SDS011;4904;49.152;11.004;2022-08-16T13:06:40;5.32;;;3.25;;
9729;SDS011;4904;49.152;11.004;2022-08-16T13:09:08;5.13;;;2.97;;
9729;SDS011;4904;49.152;11.004;2022-08-16T13:11:47;3.08;;;2.80;;
9729;SDS011;4904;49.152;11.004;2022-08-16T13:14:24;3.10;;;2.80;;
9729;SDS011;4904;49.152;11.004;2022-08-16T13:16:53;3.20;;;2.90;;
9729;SDS011;4904;49.152;11.004;2022-08-16T13:19:20;5.18;;;3.15;;
9729;SDS011;4904;49.152;11.004;2022-08-16T13:21:48;3.53;;;2.95;;
9729;SDS011;4904;49.152;11.004;2022-08-16T13:24:15;4.72;;;3.22;;
9729;SDS011;4904;49.152;11.004;2022-08-16T13:26:42;3.30;;;3.00;;
9729;SDS011;4904;49.152;11.004;2022-08-16T13:29:09;5.18;;;3.00;;
9729;SDS011;4904;49.152;11.004;2022-08-16T13:31:36;9.88;;;8.88;;
9729;SDS011;4904;49.152;11.004;2022-08-16T13:34:03;3.78;;;3.47;;
9729;SDS011;4904;49.152;11.004;2022-08-16T13:36:30;4.28;;;3.92;;
9729;SDS011;4904;49.152;11.004;2022-08-16T13:38:59;3.05;;;2.85;;
9729;SDS011;4904;49.152;11.004;2022-08-16T13:41:27;4.07;;;2.72;;
9729;SDS011;4904;49.152;11.004;2022-08-16T13:43:55;3.55;;;2.78;;
9729;SDS011;4904;49.152;11.004;2022-08-16T13:46:23;3.83;;;2.80;;
9729;SDS011;4904;49.152;11.004;2022-08-16T13:48:50;3.25;;;2.95;;
9729;SDS011;4904;49.152;11.004;2022-08-16T13:51:18;3.25;;;2.92;;
9729;SDS011;4904;49.152;11.004;2022-08-16T13:53:49;2.97;;;2.67;;
9729;SDS011;4904;49.152;11.004;2022-08-16T13:56:19;3.08;;;2.70;;
9729;SDS011;4904;49.152;11.004;2022-08-16T13:58:48;3.47;;;3.17;;
9729;SDS011;4904;49.152;11.004;2022-08-16T14:01:15;3.00;;;2.70;;
9729;SDS011;4904;49.152;11.004;2022-08-16T14:03:43;4.93;;;2.75;;
9729;SDS011;4904;49.152;11.004;2022-08-16T14:06:11;5.90;;;3.10;;
9729;SDS011;4904;49.152;11.004;2022-08-16T14:08:39;3.20;;;2.90;;
9729;SDS011;4904;49.152;11.004;2022-08-16T14:11:07;3.35;;;3.05;;
9729;SDS011;4904;49.152;11.004;2022-08-16T14:13:36;3.15;;;2.85;;
9729;SDS011;4904;49.152;11.004;2022-08-16T14:16:04;3.22;;;2.92;;
9729;SDS011;4904;49.152;11.004;2022-08-16T14:18:31;3.10;;;2.67;;
9729;SDS011;4904;49.152;11.004;2022-08-16T14:20:58;3.08;;;2.75;;
9729;SDS011;4904;49.152;11.004;2022-08-16T14:23:25;3.63;;;2.70;;
9729;SDS011;4904;49.152;11.004;2022-08-16T14:25:53;4.10;;;2.85;;
9729;SDS011;4904;49.152;11.004;2022-08-16T14:28:20;4.90;;;2.75;;
9729;SDS011;4904;49.152;11.004;2022-08-16T14:30:49;5.70;;;2.88;;
9729;SDS011;4904;49.152;11.004;2022-08-16T14:33:16;4.20;;;3.10;;
9729;SDS011;4904;49.152;11.004;2022-08-16T14:35:43;3.40;;;3.10;;
9729;SDS011;4904;49.152;11.004;2022-08-16T14:38:10;3.30;;;2.95;;
9729;SDS011;4904;49.152;11.004;2022-08-16T14:40:37;2.70;;;2.50;;
9729;SDS011;4904;49.152;11.004;2022-08-16T14:43:06;3.03;;;2.55;;
9729;SDS011;4904;49.152;11.004;2022-08-16T14:45:33;3.95;;;3.00;;
9729;SDS011;4904;49.152;11.004;2022-08-16T14:48:03;4.43;;;2.88;;
9729;SDS011;4904;49.152;11.004;2022-08-16T14:50:30;5.10;;;3.03;;
9729;SDS011;4904;49.152;11.004;2022-08-16T14:52:58;3.45;;;3.15;;
9729;SDS011;4904;49.152;11.004;2022-08-16T14:55:28;3.20;;;2.90;;
9729;SDS011;4904;49.152;11.004;2022-08-16T14:57:56;3.72;;;3.38;;
9729;SDS011;4904;49.152;11.004;2022-08-16T15:00:25;3.08;;;2.80;;
9729;SDS011;4904;49.152;11.004;2022-08-16T15:02:54;3.10;;;2.75;;
9729;SDS011;4904;49.152;11.004;2022-08-16T15:05:24;2.97;;;2.67;;